KOEB

Details ICAO KOEB (OEB)
Name BRANCH CO MEM
Region United States
Timezone America/Detroit (UTC-5.0)
Plans Departing 4
Arriving 4
Stats Elevation 959 ft / 292 m (AMSL)
Location 41.933676° -85.051693°
Runways 3
Magnetic Variation 5.955° W
Sunrise 2017-12-17 13:03:54 UTC / 2017-12-17 08:03:54 Local
Sunset 2017-12-17 22:11:43 UTC / 2017-12-17 17:11:43 Local
Advertisement - Login to hide

Runways

ID Width Length Bearing (true) Bearing (mag) Surface Threshold Offset Overrun Length
04 75 ft / 23 m 3,500 ft / 1,067 m 33.42° 39.37° Asphalt 0 ft / 0 m 0 ft / 0 m
07 75 ft / 23 m 5,342 ft / 1,628 m 63.76° 69.71° Asphalt 0 ft / 0 m 0 ft / 0 m
16 190 ft / 58 m 2,403 ft / 732 m 162.07° 168.02° Grass 595 ft / 181 m 0 ft / 0 m
22 75 ft / 23 m 3,500 ft / 1,067 m 213.42° 219.37° Asphalt 0 ft / 0 m 0 ft / 0 m
25 75 ft / 23 m 5,342 ft / 1,628 m 243.77° 249.72° Asphalt 0 ft / 0 m 0 ft / 0 m
34 190 ft / 58 m 2,403 ft / 732 m 342.07° 348.02° Grass 0 ft / 0 m 0 ft / 0 m

Map

Weather


0- 5 10 15 20 25 30 35+ Temperature / ° C

Clouds and Precipitation
Forecast for 2017-12-17 06:00 UTC. Updated an hour ago

Ground ~20,000 ft ~40,000 ft Winds

METAR

KOEB 170615Z AUTO 11006KT 7SM CLR M03/M05 A3011 RMK AO2 T10351047

TAF

Not found

Frequencies

Recorded 118.12 MHz AWOS 3
Approach 121.20 MHz KALAMAZOO APP/DEP
Unicom 122.70 MHz CTAF/UNICOM
Warning: Do not use this data for real-world aviation or navigation. No guarantee of current accuracy is given.